Terminal Aerodrome Forecast
Issued by NWS Cleveland, OH

Home | Current Version | Previous Version | Text Only | Print | Product List | Glossary Off
Versions: 1 2 3 4 5 6 7 8 9 10 11 12 13 14 15 16

000
FTUS41 KCLE 251737
TAFYNG
TAF
KYNG 251737Z 2518/2618 12012G20KT P6SM SCT100
     FM260000 09008KT P6SM BKN040
     FM260800 10006KT P6SM BKN015
     FM261200 13005KT P6SM SCT040=

USA.gov is the U.S. government's official web portal to all federal, state and local government web resources and services.